sensor_id;sensor_type;location;lat;lon;timestamp;P1;durP1;ratioP1;P2;durP2;ratioP2
31596;SDS011;18201;50.978;7.034;2022-09-09T00:00:53;8.15;;;1.95;;
31596;SDS011;18201;50.978;7.034;2022-09-09T00:02:02;6.28;;;2.10;;
31596;SDS011;18201;50.978;7.034;2022-09-09T00:03:14;5.70;;;1.77;;
31596;SDS011;18201;50.978;7.034;2022-09-09T00:04:23;2.47;;;1.58;;
31596;SDS011;18201;50.978;7.034;2022-09-09T00:05:29;6.45;;;1.83;;
31596;SDS011;18201;50.978;7.034;2022-09-09T00:06:36;3.65;;;1.75;;
31596;SDS011;18201;50.978;7.034;2022-09-09T00:07:45;4.38;;;1.73;;
31596;SDS011;18201;50.978;7.034;2022-09-09T00:08:53;4.43;;;1.63;;
31596;SDS011;18201;50.978;7.034;2022-09-09T00:10:04;4.45;;;1.70;;
31596;SDS011;18201;50.978;7.034;2022-09-09T00:11:15;3.25;;;1.60;;
31596;SDS011;18201;50.978;7.034;2022-09-09T00:12:27;6.70;;;1.70;;
31596;SDS011;18201;50.978;7.034;2022-09-09T00:13:34;3.53;;;1.48;;
31596;SDS011;18201;50.978;7.034;2022-09-09T00:14:45;9.80;;;2.00;;
31596;SDS011;18201;50.978;7.034;2022-09-09T00:15:54;4.65;;;1.73;;
31596;SDS011;18201;50.978;7.034;2022-09-09T00:17:00;3.65;;;1.55;;
31596;SDS011;18201;50.978;7.034;2022-09-09T00:18:07;6.97;;;1.90;;
31596;SDS011;18201;50.978;7.034;2022-09-09T00:19:18;4.07;;;1.77;;
31596;SDS011;18201;50.978;7.034;2022-09-09T00:20:25;2.92;;;1.60;;
31596;SDS011;18201;50.978;7.034;2022-09-09T00:21:32;3.03;;;1.30;;
31596;SDS011;18201;50.978;7.034;2022-09-09T00:22:36;4.75;;;2.05;;
31596;SDS011;18201;50.978;7.034;2022-09-09T00:23:44;5.82;;;1.60;;
31596;SDS011;18201;50.978;7.034;2022-09-09T00:24:51;5.28;;;2.17;;
31596;SDS011;18201;50.978;7.034;2022-09-09T00:25:55;3.83;;;1.63;;
31596;SDS011;18201;50.978;7.034;2022-09-09T00:27:04;4.97;;;1.60;;
31596;SDS011;18201;50.978;7.034;2022-09-09T00:28:13;6.60;;;1.95;;
31596;SDS011;18201;50.978;7.034;2022-09-09T00:29:21;5.55;;;1.67;;
31596;SDS011;18201;50.978;7.034;2022-09-09T00:31:33;2.25;;;1.60;;
31596;SDS011;18201;50.978;7.034;2022-09-09T00:32:35;7.55;;;2.00;;
31596;SDS011;18201;50.978;7.034;2022-09-09T00:33:37;6.20;;;2.15;;
31596;SDS011;18201;50.978;7.034;2022-09-09T00:34:42;2.58;;;1.45;;
31596;SDS011;18201;50.978;7.034;2022-09-09T00:35:49;4.93;;;1.75;;
31596;SDS011;18201;50.978;7.034;2022-09-09T00:36:52;3.25;;;1.50;;
31596;SDS011;18201;50.978;7.034;2022-09-09T00:37:56;2.63;;;1.65;;
31596;SDS011;18201;50.978;7.034;2022-09-09T00:39:02;3.65;;;1.33;;
31596;SDS011;18201;50.978;7.034;2022-09-09T00:40:06;3.90;;;1.50;;
31596;SDS011;18201;50.978;7.034;2022-09-09T00:41:19;5.15;;;2.08;;
31596;SDS011;18201;50.978;7.034;2022-09-09T00:42:32;2.15;;;1.95;;
31596;SDS011;18201;50.978;7.034;2022-09-09T00:43:43;4.70;;;1.73;;
31596;SDS011;18201;50.978;7.034;2022-09-09T00:45:02;6.80;;;2.38;;
31596;SDS011;18201;50.978;7.034;2022-09-09T00:46:21;6.03;;;1.55;;
31596;SDS011;18201;50.978;7.034;2022-09-09T00:47:44;4.75;;;2.00;;
31596;SDS011;18201;50.978;7.034;2022-09-09T00:48:49;3.83;;;1.98;;
31596;SDS011;18201;50.978;7.034;2022-09-09T00:49:58;4.32;;;1.75;;
31596;SDS011;18201;50.978;7.034;2022-09-09T00:51:02;3.83;;;1.70;;
31596;SDS011;18201;50.978;7.034;2022-09-09T00:52:18;7.18;;;1.52;;
31596;SDS011;18201;50.978;7.034;2022-09-09T00:53:29;2.28;;;1.40;;
31596;SDS011;18201;50.978;7.034;2022-09-09T00:54:40;5.97;;;1.90;;
31596;SDS011;18201;50.978;7.034;2022-09-09T00:55:48;2.95;;;1.45;;
31596;SDS011;18201;50.978;7.034;2022-09-09T00:56:57;4.57;;;1.30;;
31596;SDS011;18201;50.978;7.034;2022-09-09T00:58:06;3.85;;;1.17;;
31596;SDS011;18201;50.978;7.034;2022-09-09T00:59:16;6.45;;;0.95;;
31596;SDS011;18201;50.978;7.034;2022-09-09T01:00:25;3.50;;;1.02;;
31596;SDS011;18201;50.978;7.034;2022-09-09T01:01:29;2.55;;;1.20;;
31596;SDS011;18201;50.978;7.034;2022-09-09T01:02:31;2.95;;;1.10;;
31596;SDS011;18201;50.978;7.034;2022-09-09T01:03:40;5.80;;;1.20;;
31596;SDS011;18201;50.978;7.034;2022-09-09T01:04:47;1.70;;;0.95;;
31596;SDS011;18201;50.978;7.034;2022-09-09T01:05:51;3.20;;;0.88;;
31596;SDS011;18201;50.978;7.034;2022-09-09T01:07:02;1.88;;;0.80;;
31596;SDS011;18201;50.978;7.034;2022-09-09T01:08:15;1.65;;;0.80;;
31596;SDS011;18201;50.978;7.034;2022-09-09T01:09:29;2.85;;;1.13;;
31596;SDS011;18201;50.978;7.034;2022-09-09T01:10:40;2.00;;;0.80;;
31596;SDS011;18201;50.978;7.034;2022-09-09T01:11:51;2.47;;;1.05;;
31596;SDS011;18201;50.978;7.034;2022-09-09T01:12:58;3.53;;;1.52;;
31596;SDS011;18201;50.978;7.034;2022-09-09T01:14:09;2.78;;;1.02;;
31596;SDS011;18201;50.978;7.034;2022-09-09T01:15:19;2.90;;;1.00;;
31596;SDS011;18201;50.978;7.034;2022-09-09T01:16:24;2.50;;;1.20;;
31596;SDS011;18201;50.978;7.034;2022-09-09T01:17:30;2.47;;;1.10;;
31596;SDS011;18201;50.978;7.034;2022-09-09T01:18:34;2.88;;;1.15;;
31596;SDS011;18201;50.978;7.034;2022-09-09T01:19:40;3.42;;;1.25;;
31596;SDS011;18201;50.978;7.034;2022-09-09T01:20:59;2.85;;;1.17;;
31596;SDS011;18201;50.978;7.034;2022-09-09T01:24:40;2.13;;;1.00;;
31596;SDS011;18201;50.978;7.034;2022-09-09T01:27:17;1.42;;;0.90;;
31596;SDS011;18201;50.978;7.034;2022-09-09T01:28:21;2.83;;;1.10;;
31596;SDS011;18201;50.978;7.034;2022-09-09T01:29:26;3.30;;;1.35;;
31596;SDS011;18201;50.978;7.034;2022-09-09T01:30:29;1.88;;;0.82;;
31596;SDS011;18201;50.978;7.034;2022-09-09T01:31:32;3.53;;;1.02;;
31596;SDS011;18201;50.978;7.034;2022-09-09T01:32:39;2.72;;;0.93;;
31596;SDS011;18201;50.978;7.034;2022-09-09T01:33:42;3.15;;;0.90;;
31596;SDS011;18201;50.978;7.034;2022-09-09T01:34:44;4.20;;;1.73;;
31596;SDS011;18201;50.978;7.034;2022-09-09T01:35:47;3.47;;;1.27;;
31596;SDS011;18201;50.978;7.034;2022-09-09T01:36:56;4.53;;;1.23;;
31596;SDS011;18201;50.978;7.034;2022-09-09T01:37:59;2.97;;;1.02;;
31596;SDS011;18201;50.978;7.034;2022-09-09T01:39:01;2.47;;;1.00;;
31596;SDS011;18201;50.978;7.034;2022-09-09T01:40:03;6.80;;;1.02;;
31596;SDS011;18201;50.978;7.034;2022-09-09T01:41:06;1.75;;;0.80;;
31596;SDS011;18201;50.978;7.034;2022-09-09T01:42:08;3.65;;;1.17;;
31596;SDS011;18201;50.978;7.034;2022-09-09T01:43:12;4.97;;;2.53;;
31596;SDS011;18201;50.978;7.034;2022-09-09T01:44:13;2.55;;;1.38;;
31596;SDS011;18201;50.978;7.034;2022-09-09T01:45:15;5.07;;;2.22;;
31596;SDS011;18201;50.978;7.034;2022-09-09T01:46:16;3.78;;;1.40;;
31596;SDS011;18201;50.978;7.034;2022-09-09T01:47:19;3.45;;;1.58;;
31596;SDS011;18201;50.978;7.034;2022-09-09T01:48:21;2.63;;;1.20;;
31596;SDS011;18201;50.978;7.034;2022-09-09T01:49:24;5.60;;;1.35;;
31596;SDS011;18201;50.978;7.034;2022-09-09T01:50:25;3.10;;;1.00;;
31596;SDS011;18201;50.978;7.034;2022-09-09T01:51:27;3.47;;;1.48;;
31596;SDS011;18201;50.978;7.034;2022-09-09T01:52:28;4.55;;;1.40;;
31596;SDS011;18201;50.978;7.034;2022-09-09T01:53:31;3.47;;;1.30;;
31596;SDS011;18201;50.978;7.034;2022-09-09T01:54:32;4.18;;;1.20;;
31596;SDS011;18201;50.978;7.034;2022-09-09T01:55:37;2.70;;;1.10;;
31596;SDS011;18201;50.978;7.034;2022-09-09T01:56:40;3.45;;;0.93;;
31596;SDS011;18201;50.978;7.034;2022-09-09T01:57:54;4.32;;;1.85;;
31596;SDS011;18201;50.978;7.034;2022-09-09T01:59:11;2.20;;;1.25;;
31596;SDS011;18201;50.978;7.034;2022-09-09T02:00:22;3.97;;;1.13;;
31596;SDS011;18201;50.978;7.034;2022-09-09T02:01:25;3.30;;;1.10;;
31596;SDS011;18201;50.978;7.034;2022-09-09T02:02:32;2.15;;;0.90;;
31596;SDS011;18201;50.978;7.034;2022-09-09T02:03:36;3.83;;;1.15;;
31596;SDS011;18201;50.978;7.034;2022-09-09T02:04:39;3.10;;;1.30;;
31596;SDS011;18201;50.978;7.034;2022-09-09T02:05:43;2.95;;;1.05;;
31596;SDS011;18201;50.978;7.034;2022-09-09T02:06:49;4.32;;;1.40;;
31596;SDS011;18201;50.978;7.034;2022-09-09T02:07:57;3.50;;;1.20;;
31596;SDS011;18201;50.978;7.034;2022-09-09T02:09:05;3.90;;;1.58;;
31596;SDS011;18201;50.978;7.034;2022-09-09T02:10:09;4.60;;;1.60;;
31596;SDS011;18201;50.978;7.034;2022-09-09T02:11:13;2.80;;;1.25;;
31596;SDS011;18201;50.978;7.034;2022-09-09T02:12:16;2.72;;;1.20;;
31596;SDS011;18201;50.978;7.034;2022-09-09T02:13:24;5.25;;;1.10;;
31596;SDS011;18201;50.978;7.034;2022-09-09T02:14:27;5.13;;;1.55;;
31596;SDS011;18201;50.978;7.034;2022-09-09T02:15:32;3.08;;;0.95;;
31596;SDS011;18201;50.978;7.034;2022-09-09T02:16:40;3.60;;;1.20;;
31596;SDS011;18201;50.978;7.034;2022-09-09T02:17:45;2.45;;;0.90;;
31596;SDS011;18201;50.978;7.034;2022-09-09T02:18:49;3.30;;;1.40;;
31596;SDS011;18201;50.978;7.034;2022-09-09T02:19:54;2.88;;;1.08;;
31596;SDS011;18201;50.978;7.034;2022-09-09T02:21:00;1.85;;;1.02;;
31596;SDS011;18201;50.978;7.034;2022-09-09T02:22:03;2.95;;;0.93;;
31596;SDS011;18201;50.978;7.034;2022-09-09T02:23:05;5.10;;;1.58;;
31596;SDS011;18201;50.978;7.034;2022-09-09T02:24:08;2.83;;;1.27;;
31596;SDS011;18201;50.978;7.034;2022-09-09T02:25:13;3.25;;;1.45;;
31596;SDS011;18201;50.978;7.034;2022-09-09T02:26:17;2.80;;;1.40;;
31596;SDS011;18201;50.978;7.034;2022-09-09T02:27:21;2.25;;;1.08;;
31596;SDS011;18201;50.978;7.034;2022-09-09T02:28:24;2.65;;;1.05;;
31596;SDS011;18201;50.978;7.034;2022-09-09T02:29:30;1.98;;;1.38;;
31596;SDS011;18201;50.978;7.034;2022-09-09T02:30:34;5.95;;;1.63;;
31596;SDS011;18201;50.978;7.034;2022-09-09T02:31:38;5.15;;;1.20;;
31596;SDS011;18201;50.978;7.034;2022-09-09T02:32:41;3.22;;;1.13;;
31596;SDS011;18201;50.978;7.034;2022-09-09T02:33:45;4.35;;;1.58;;
31596;SDS011;18201;50.978;7.034;2022-09-09T02:34:51;9.25;;;1.25;;
31596;SDS011;18201;50.978;7.034;2022-09-09T02:35:56;3.05;;;0.95;;
31596;SDS011;18201;50.978;7.034;2022-09-09T02:37:03;4.55;;;1.17;;
31596;SDS011;18201;50.978;7.034;2022-09-09T02:38:08;11.90;;;1.80;;
31596;SDS011;18201;50.978;7.034;2022-09-09T02:39:12;2.63;;;1.13;;
31596;SDS011;18201;50.978;7.034;2022-09-09T02:40:14;8.30;;;1.20;;
31596;SDS011;18201;50.978;7.034;2022-09-09T02:41:16;4.32;;;1.30;;
31596;SDS011;18201;50.978;7.034;2022-09-09T02:42:18;5.68;;;1.60;;
31596;SDS011;18201;50.978;7.034;2022-09-09T02:43:19;5.07;;;1.73;;
31596;SDS011;18201;50.978;7.034;2022-09-09T02:44:23;2.42;;;1.50;;
31596;SDS011;18201;50.978;7.034;2022-09-09T02:45:25;5.28;;;1.55;;
31596;SDS011;18201;50.978;7.034;2022-09-09T02:46:36;4.07;;;1.92;;
31596;SDS011;18201;50.978;7.034;2022-09-09T02:47:44;3.55;;;1.17;;
31596;SDS011;18201;50.978;7.034;2022-09-09T02:48:53;3.38;;;1.25;;
31596;SDS011;18201;50.978;7.034;2022-09-09T02:50:02;3.60;;;1.02;;
31596;SDS011;18201;50.978;7.034;2022-09-09T02:51:14;4.60;;;1.20;;
31596;SDS011;18201;50.978;7.034;2022-09-09T02:52:19;3.25;;;1.08;;
31596;SDS011;18201;50.978;7.034;2022-09-09T02:53:29;4.13;;;1.10;;
31596;SDS011;18201;50.978;7.034;2022-09-09T02:54:42;4.90;;;1.08;;
31596;SDS011;18201;50.978;7.034;2022-09-09T02:55:45;3.72;;;1.20;;
31596;SDS011;18201;50.978;7.034;2022-09-09T02:56:49;3.85;;;1.20;;
31596;SDS011;18201;50.978;7.034;2022-09-09T02:57:54;8.20;;;1.73;;
31596;SDS011;18201;50.978;7.034;2022-09-09T02:58:56;3.67;;;1.63;;
31596;SDS011;18201;50.978;7.034;2022-09-09T03:00:00;3.83;;;2.30;;
31596;SDS011;18201;50.978;7.034;2022-09-09T03:01:01;8.55;;;4.93;;
31596;SDS011;18201;50.978;7.034;2022-09-09T03:02:03;8.80;;;3.85;;
31596;SDS011;18201;50.978;7.034;2022-09-09T03:03:05;2.67;;;2.00;;
31596;SDS011;18201;50.978;7.034;2022-09-09T03:04:08;4.65;;;2.00;;
31596;SDS011;18201;50.978;7.034;2022-09-09T03:05:09;5.53;;;1.73;;
31596;SDS011;18201;50.978;7.034;2022-09-09T03:06:13;5.80;;;1.85;;
31596;SDS011;18201;50.978;7.034;2022-09-09T03:07:14;4.82;;;1.48;;
31596;SDS011;18201;50.978;7.034;2022-09-09T03:08:17;4.82;;;1.50;;
31596;SDS011;18201;50.978;7.034;2022-09-09T03:09:18;5.15;;;1.42;;
31596;SDS011;18201;50.978;7.034;2022-09-09T03:10:20;8.50;;;2.10;;
31596;SDS011;18201;50.978;7.034;2022-09-09T03:11:21;5.28;;;1.40;;
31596;SDS011;18201;50.978;7.034;2022-09-09T03:12:22;3.95;;;1.30;;
31596;SDS011;18201;50.978;7.034;2022-09-09T03:13:23;5.00;;;1.38;;
31596;SDS011;18201;50.978;7.034;2022-09-09T03:14:25;3.92;;;1.60;;
31596;SDS011;18201;50.978;7.034;2022-09-09T03:15:27;4.50;;;1.38;;
31596;SDS011;18201;50.978;7.034;2022-09-09T03:16:31;2.40;;;1.10;;
31596;SDS011;18201;50.978;7.034;2022-09-09T03:17:33;4.45;;;1.52;;
31596;SDS011;18201;50.978;7.034;2022-09-09T03:18:35;2.58;;;1.10;;
31596;SDS011;18201;50.978;7.034;2022-09-09T03:19:36;8.70;;;1.48;;
31596;SDS011;18201;50.978;7.034;2022-09-09T03:20:38;3.45;;;1.42;;
31596;SDS011;18201;50.978;7.034;2022-09-09T03:21:38;8.93;;;1.60;;
31596;SDS011;18201;50.978;7.034;2022-09-09T03:22:40;4.47;;;1.58;;
31596;SDS011;18201;50.978;7.034;2022-09-09T03:23:41;6.40;;;1.15;;
31596;SDS011;18201;50.978;7.034;2022-09-09T03:24:45;3.45;;;1.17;;
31596;SDS011;18201;50.978;7.034;2022-09-09T03:25:47;2.80;;;1.33;;
31596;SDS011;18201;50.978;7.034;2022-09-09T03:26:49;5.57;;;0.90;;
31596;SDS011;18201;50.978;7.034;2022-09-09T03:27:50;2.83;;;1.10;;
31596;SDS011;18201;50.978;7.034;2022-09-09T03:28:54;3.55;;;1.35;;
31596;SDS011;18201;50.978;7.034;2022-09-09T03:29:55;4.57;;;1.30;;
31596;SDS011;18201;50.978;7.034;2022-09-09T03:30:59;4.88;;;1.60;;
31596;SDS011;18201;50.978;7.034;2022-09-09T03:32:01;2.97;;;1.17;;
31596;SDS011;18201;50.978;7.034;2022-09-09T03:33:03;3.72;;;1.52;;
31596;SDS011;18201;50.978;7.034;2022-09-09T03:34:04;5.50;;;1.20;;
31596;SDS011;18201;50.978;7.034;2022-09-09T03:35:06;6.63;;;1.50;;
31596;SDS011;18201;50.978;7.034;2022-09-09T03:36:08;4.10;;;1.45;;
31596;SDS011;18201;50.978;7.034;2022-09-09T03:37:10;2.58;;;1.42;;
31596;SDS011;18201;50.978;7.034;2022-09-09T03:38:11;4.75;;;1.40;;
31596;SDS011;18201;50.978;7.034;2022-09-09T03:39:13;3.70;;;1.88;;
31596;SDS011;18201;50.978;7.034;2022-09-09T03:40:15;5.63;;;1.20;;
31596;SDS011;18201;50.978;7.034;2022-09-09T03:41:18;6.75;;;1.23;;
31596;SDS011;18201;50.978;7.034;2022-09-09T03:42:19;5.90;;;1.65;;
31596;SDS011;18201;50.978;7.034;2022-09-09T03:43:21;4.43;;;0.95;;
31596;SDS011;18201;50.978;7.034;2022-09-09T03:44:22;6.60;;;1.55;;
31596;SDS011;18201;50.978;7.034;2022-09-09T03:45:24;7.32;;;1.48;;
31596;SDS011;18201;50.978;7.034;2022-09-09T03:46:26;4.53;;;1.48;;
31596;SDS011;18201;50.978;7.034;2022-09-09T03:47:28;4.43;;;1.00;;
31596;SDS011;18201;50.978;7.034;2022-09-09T03:48:30;5.95;;;1.25;;
31596;SDS011;18201;50.978;7.034;2022-09-09T03:49:31;4.20;;;1.38;;
31596;SDS011;18201;50.978;7.034;2022-09-09T03:50:32;3.58;;;1.17;;
31596;SDS011;18201;50.978;7.034;2022-09-09T03:51:34;3.80;;;1.42;;
31596;SDS011;18201;50.978;7.034;2022-09-09T03:52:36;4.22;;;1.50;;
31596;SDS011;18201;50.978;7.034;2022-09-09T03:53:39;4.78;;;1.58;;
31596;SDS011;18201;50.978;7.034;2022-09-09T03:54:40;6.47;;;1.85;;
31596;SDS011;18201;50.978;7.034;2022-09-09T03:55:43;4.25;;;1.30;;
31596;SDS011;18201;50.978;7.034;2022-09-09T03:56:45;7.10;;;2.10;;
31596;SDS011;18201;50.978;7.034;2022-09-09T03:57:47;3.90;;;1.42;;
31596;SDS011;18201;50.978;7.034;2022-09-09T03:58:48;5.93;;;1.83;;
31596;SDS011;18201;50.978;7.034;2022-09-09T03:59:50;6.65;;;1.80;;
31596;SDS011;18201;50.978;7.034;2022-09-09T04:00:54;5.43;;;1.55;;
31596;SDS011;18201;50.978;7.034;2022-09-09T04:01:57;5.80;;;2.00;;
31596;SDS011;18201;50.978;7.034;2022-09-09T04:02:59;4.50;;;2.10;;
31596;SDS011;18201;50.978;7.034;2022-09-09T04:04:01;6.40;;;1.92;;
31596;SDS011;18201;50.978;7.034;2022-09-09T04:05:02;8.13;;;1.83;;
31596;SDS011;18201;50.978;7.034;2022-09-09T04:06:05;5.80;;;1.73;;
31596;SDS011;18201;50.978;7.034;2022-09-09T04:07:07;7.03;;;2.03;;
31596;SDS011;18201;50.978;7.034;2022-09-09T04:08:10;4.80;;;2.13;;
31596;SDS011;18201;50.978;7.034;2022-09-09T04:09:11;6.30;;;1.60;;
31596;SDS011;18201;50.978;7.034;2022-09-09T04:10:13;5.47;;;1.80;;
31596;SDS011;18201;50.978;7.034;2022-09-09T04:11:16;6.15;;;2.13;;
31596;SDS011;18201;50.978;7.034;2022-09-09T04:12:18;4.28;;;1.70;;
31596;SDS011;18201;50.978;7.034;2022-09-09T04:13:19;6.97;;;2.20;;
31596;SDS011;18201;50.978;7.034;2022-09-09T04:14:21;9.73;;;2.30;;
31596;SDS011;18201;50.978;7.034;2022-09-09T04:15:22;3.60;;;1.55;;
31596;SDS011;18201;50.978;7.034;2022-09-09T04:16:24;6.57;;;1.80;;
31596;SDS011;18201;50.978;7.034;2022-09-09T04:17:26;5.32;;;2.55;;
31596;SDS011;18201;50.978;7.034;2022-09-09T04:18:28;3.83;;;1.70;;
31596;SDS011;18201;50.978;7.034;2022-09-09T04:19:29;5.10;;;2.08;;
31596;SDS011;18201;50.978;7.034;2022-09-09T04:20:31;4.82;;;2.17;;
31596;SDS011;18201;50.978;7.034;2022-09-09T04:21:32;5.80;;;2.10;;
31596;SDS011;18201;50.978;7.034;2022-09-09T04:22:34;4.82;;;1.70;;
31596;SDS011;18201;50.978;7.034;2022-09-09T04:23:35;5.90;;;2.22;;
31596;SDS011;18201;50.978;7.034;2022-09-09T04:24:37;5.43;;;2.00;;
31596;SDS011;18201;50.978;7.034;2022-09-09T04:25:38;5.38;;;1.52;;
31596;SDS011;18201;50.978;7.034;2022-09-09T04:26:45;3.78;;;2.10;;
31596;SDS011;18201;50.978;7.034;2022-09-09T04:27:46;3.58;;;1.80;;
31596;SDS011;18201;50.978;7.034;2022-09-09T04:28:51;3.65;;;1.90;;
31596;SDS011;18201;50.978;7.034;2022-09-09T04:29:53;4.60;;;1.95;;
31596;SDS011;18201;50.978;7.034;2022-09-09T04:31:04;6.05;;;1.83;;
31596;SDS011;18201;50.978;7.034;2022-09-09T04:32:05;3.45;;;1.88;;
31596;SDS011;18201;50.978;7.034;2022-09-09T04:33:08;5.25;;;1.55;;
31596;SDS011;18201;50.978;7.034;2022-09-09T04:34:10;6.50;;;1.83;;
31596;SDS011;18201;50.978;7.034;2022-09-09T04:35:12;3.88;;;1.60;;
31596;SDS011;18201;50.978;7.034;2022-09-09T04:36:13;3.75;;;1.70;;
31596;SDS011;18201;50.978;7.034;2022-09-09T04:37:15;6.88;;;2.10;;
31596;SDS011;18201;50.978;7.034;2022-09-09T04:38:16;2.17;;;1.40;;
31596;SDS011;18201;50.978;7.034;2022-09-09T04:39:19;6.45;;;1.90;;
31596;SDS011;18201;50.978;7.034;2022-09-09T04:40:20;4.80;;;1.40;;
31596;SDS011;18201;50.978;7.034;2022-09-09T04:41:22;7.50;;;1.85;;
31596;SDS011;18201;50.978;7.034;2022-09-09T04:42:23;3.55;;;1.50;;
31596;SDS011;18201;50.978;7.034;2022-09-09T04:43:27;6.82;;;1.98;;
31596;SDS011;18201;50.978;7.034;2022-09-09T04:44:28;6.00;;;1.58;;
31596;SDS011;18201;50.978;7.034;2022-09-09T04:45:30;3.88;;;1.55;;
31596;SDS011;18201;50.978;7.034;2022-09-09T04:46:32;6.72;;;2.10;;
31596;SDS011;18201;50.978;7.034;2022-09-09T04:47:35;2.92;;;1.60;;
31596;SDS011;18201;50.978;7.034;2022-09-09T04:48:37;4.22;;;1.83;;
31596;SDS011;18201;50.978;7.034;2022-09-09T04:49:39;6.78;;;1.90;;
31596;SDS011;18201;50.978;7.034;2022-09-09T04:50:41;9.52;;;2.13;;
31596;SDS011;18201;50.978;7.034;2022-09-09T04:51:43;4.10;;;2.25;;
31596;SDS011;18201;50.978;7.034;2022-09-09T04:52:44;7.30;;;1.60;;
31596;SDS011;18201;50.978;7.034;2022-09-09T04:53:46;6.20;;;1.90;;
31596;SDS011;18201;50.978;7.034;2022-09-09T04:54:47;6.35;;;1.92;;
31596;SDS011;18201;50.978;7.034;2022-09-09T04:55:49;3.92;;;1.30;;
31596;SDS011;18201;50.978;7.034;2022-09-09T04:56:50;8.95;;;2.42;;
31596;SDS011;18201;50.978;7.034;2022-09-09T04:57:52;2.92;;;1.75;;
31596;SDS011;18201;50.978;7.034;2022-09-09T04:58:54;4.85;;;1.73;;
31596;SDS011;18201;50.978;7.034;2022-09-09T04:59:56;10.93;;;2.35;;
31596;SDS011;18201;50.978;7.034;2022-09-09T05:01:02;4.60;;;1.67;;
31596;SDS011;18201;50.978;7.034;2022-09-09T05:02:07;6.65;;;1.67;;
31596;SDS011;18201;50.978;7.034;2022-09-09T05:03:08;5.65;;;1.88;;
31596;SDS011;18201;50.978;7.034;2022-09-09T05:04:12;5.05;;;1.55;;
31596;SDS011;18201;50.978;7.034;2022-09-09T05:05:14;4.82;;;1.77;;
31596;SDS011;18201;50.978;7.034;2022-09-09T05:06:17;7.47;;;2.38;;
31596;SDS011;18201;50.978;7.034;2022-09-09T05:07:19;6.55;;;2.20;;
31596;SDS011;18201;50.978;7.034;2022-09-09T05:08:21;4.82;;;1.45;;
31596;SDS011;18201;50.978;7.034;2022-09-09T05:09:23;6.50;;;1.60;;
31596;SDS011;18201;50.978;7.034;2022-09-09T05:10:24;5.55;;;2.15;;
31596;SDS011;18201;50.978;7.034;2022-09-09T05:11:27;5.72;;;2.25;;
31596;SDS011;18201;50.978;7.034;2022-09-09T05:12:30;6.13;;;1.65;;
31596;SDS011;18201;50.978;7.034;2022-09-09T05:13:31;6.00;;;1.70;;
31596;SDS011;18201;50.978;7.034;2022-09-09T05:14:33;5.93;;;1.80;;
31596;SDS011;18201;50.978;7.034;2022-09-09T05:15:35;4.82;;;2.03;;
31596;SDS011;18201;50.978;7.034;2022-09-09T05:16:37;5.90;;;2.25;;
31596;SDS011;18201;50.978;7.034;2022-09-09T05:17:38;6.13;;;2.00;;
31596;SDS011;18201;50.978;7.034;2022-09-09T05:18:40;6.95;;;2.03;;
31596;SDS011;18201;50.978;7.034;2022-09-09T05:19:44;3.53;;;1.73;;
31596;SDS011;18201;50.978;7.034;2022-09-09T05:20:46;8.27;;;2.60;;
31596;SDS011;18201;50.978;7.034;2022-09-09T05:21:46;8.10;;;2.25;;
31596;SDS011;18201;50.978;7.034;2022-09-09T05:22:52;6.88;;;2.35;;
31596;SDS011;18201;50.978;7.034;2022-09-09T05:23:54;6.55;;;2.17;;
31596;SDS011;18201;50.978;7.034;2022-09-09T05:24:56;5.78;;;2.70;;
31596;SDS011;18201;50.978;7.034;2022-09-09T05:25:57;7.68;;;2.70;;
31596;SDS011;18201;50.978;7.034;2022-09-09T05:26:59;7.75;;;3.10;;
31596;SDS011;18201;50.978;7.034;2022-09-09T05:28:02;9.32;;;3.53;;
31596;SDS011;18201;50.978;7.034;2022-09-09T05:29:04;8.68;;;3.10;;
31596;SDS011;18201;50.978;7.034;2022-09-09T05:30:06;9.00;;;3.10;;
31596;SDS011;18201;50.978;7.034;2022-09-09T05:31:10;7.28;;;2.95;;
31596;SDS011;18201;50.978;7.034;2022-09-09T05:32:12;6.60;;;3.40;;
31596;SDS011;18201;50.978;7.034;2022-09-09T05:33:15;6.55;;;2.92;;
31596;SDS011;18201;50.978;7.034;2022-09-09T05:34:16;8.65;;;3.47;;
31596;SDS011;18201;50.978;7.034;2022-09-09T05:35:19;14.63;;;4.22;;
31596;SDS011;18201;50.978;7.034;2022-09-09T05:36:21;12.30;;;3.47;;
31596;SDS011;18201;50.978;7.034;2022-09-09T05:37:23;11.13;;;3.25;;
31596;SDS011;18201;50.978;7.034;2022-09-09T05:38:24;9.05;;;3.33;;
31596;SDS011;18201;50.978;7.034;2022-09-09T05:39:26;13.00;;;3.60;;
31596;SDS011;18201;50.978;7.034;2022-09-09T05:40:27;4.90;;;3.22;;
31596;SDS011;18201;50.978;7.034;2022-09-09T05:41:29;5.97;;;3.22;;
31596;SDS011;18201;50.978;7.034;2022-09-09T05:42:31;11.00;;;3.78;;
31596;SDS011;18201;50.978;7.034;2022-09-09T05:43:33;9.07;;;3.22;;
31596;SDS011;18201;50.978;7.034;2022-09-09T05:44:35;9.88;;;3.67;;
31596;SDS011;18201;50.978;7.034;2022-09-09T05:45:37;12.80;;;3.78;;
31596;SDS011;18201;50.978;7.034;2022-09-09T05:46:38;11.32;;;3.55;;
31596;SDS011;18201;50.978;7.034;2022-09-09T05:47:40;14.60;;;3.67;;
31596;SDS011;18201;50.978;7.034;2022-09-09T05:48:42;11.07;;;3.88;;
31596;SDS011;18201;50.978;7.034;2022-09-09T05:49:46;13.02;;;3.78;;
31596;SDS011;18201;50.978;7.034;2022-09-09T05:50:53;12.50;;;3.85;;
31596;SDS011;18201;50.978;7.034;2022-09-09T05:51:55;11.80;;;3.78;;
31596;SDS011;18201;50.978;7.034;2022-09-09T05:52:56;11.02;;;3.78;;
31596;SDS011;18201;50.978;7.034;2022-09-09T05:53:58;10.70;;;3.58;;
31596;SDS011;18201;50.978;7.034;2022-09-09T05:54:59;12.15;;;4.28;;
31596;SDS011;18201;50.978;7.034;2022-09-09T05:56:01;8.05;;;3.78;;
31596;SDS011;18201;50.978;7.034;2022-09-09T05:57:03;9.15;;;3.70;;
31596;SDS011;18201;50.978;7.034;2022-09-09T05:58:06;10.23;;;3.67;;
31596;SDS011;18201;50.978;7.034;2022-09-09T05:59:07;10.45;;;3.40;;
31596;SDS011;18201;50.978;7.034;2022-09-09T06:00:09;12.30;;;3.15;;
31596;SDS011;18201;50.978;7.034;2022-09-09T06:01:13;13.70;;;3.85;;
31596;SDS011;18201;50.978;7.034;2022-09-09T06:02:17;9.95;;;3.60;;
31596;SDS011;18201;50.978;7.034;2022-09-09T06:03:18;8.48;;;3.22;;
31596;SDS011;18201;50.978;7.034;2022-09-09T06:04:23;12.07;;;3.60;;
31596;SDS011;18201;50.978;7.034;2022-09-09T06:05:24;13.80;;;3.88;;
31596;SDS011;18201;50.978;7.034;2022-09-09T06:06:31;7.30;;;3.45;;
31596;SDS011;18201;50.978;7.034;2022-09-09T06:07:36;8.82;;;4.10;;
31596;SDS011;18201;50.978;7.034;2022-09-09T06:08:42;13.50;;;3.70;;
31596;SDS011;18201;50.978;7.034;2022-09-09T06:09:44;8.65;;;3.70;;
31596;SDS011;18201;50.978;7.034;2022-09-09T06:10:46;6.80;;;3.85;;
31596;SDS011;18201;50.978;7.034;2022-09-09T06:11:47;10.68;;;3.83;;
31596;SDS011;18201;50.978;7.034;2022-09-09T06:12:48;8.70;;;3.13;;
31596;SDS011;18201;50.978;7.034;2022-09-09T06:13:52;8.35;;;3.30;;
31596;SDS011;18201;50.978;7.034;2022-09-09T06:14:54;10.85;;;4.15;;
31596;SDS011;18201;50.978;7.034;2022-09-09T06:15:55;18.83;;;4.00;;
31596;SDS011;18201;50.978;7.034;2022-09-09T06:16:58;17.45;;;3.80;;
31596;SDS011;18201;50.978;7.034;2022-09-09T06:17:59;8.82;;;4.10;;
31596;SDS011;18201;50.978;7.034;2022-09-09T06:19:01;8.50;;;3.83;;
31596;SDS011;18201;50.978;7.034;2022-09-09T06:20:03;8.23;;;4.30;;
31596;SDS011;18201;50.978;7.034;2022-09-09T06:21:07;10.70;;;4.28;;
31596;SDS011;18201;50.978;7.034;2022-09-09T06:22:13;6.75;;;3.85;;
31596;SDS011;18201;50.978;7.034;2022-09-09T06:23:15;12.65;;;3.90;;
31596;SDS011;18201;50.978;7.034;2022-09-09T06:24:16;8.23;;;3.58;;
31596;SDS011;18201;50.978;7.034;2022-09-09T06:25:19;10.50;;;3.90;;
31596;SDS011;18201;50.978;7.034;2022-09-09T06:26:20;7.68;;;4.28;;
31596;SDS011;18201;50.978;7.034;2022-09-09T06:27:24;8.25;;;3.58;;
31596;SDS011;18201;50.978;7.034;2022-09-09T06:28:26;7.43;;;3.15;;
31596;SDS011;18201;50.978;7.034;2022-09-09T06:29:27;8.80;;;3.58;;
31596;SDS011;18201;50.978;7.034;2022-09-09T06:30:29;8.32;;;3.90;;